[Yardım]  makroyla bir metinin belirli bir parçasını nasıl seçeriz?

VBA Makrolar ile ilgili sormak istedikleriniz, yapmak istedikleriniz hakkında yardım alabileceğiniz bölümdür.

makroyla bir metinin belirli bir parçasını nasıl seçeriz?

İleti#1)  aybekcan » 17 May 2018 16:53

MERHABA
Aşağıdaki satırlarda "rmk" ile başlayan kısımdan itibaren "=" e kadar olan ifadeleri silmek istiyorum.

LDJK 171150Z VRB05KT 9999 BKN035 29/08 Q1018 TEMPO FM 1300 28015G25KT -TSRA RMK RWY21 VRB03KT =
GPDJ 171150Z VRB06KT 9999 TS FEW030CB BKN033 24/09 Q1020 RMK RWY13 VRB08KT =
KKPS 171150Z 21006KT 160V250 9999 FEW035 SCT100 BKN200 32/10 Q1015 NOSIG RMK RWY18 20008KT 170V250 =
SGAD 171150Z 19003KT 160V230 9999 FEW035 BKN100 29/14 Q1015 NOSIG RMK RWY18 22005KT 170V260 =
FAFD 171150Z VRB02G12KT 9999 FEW030CB BKN035 25/11 Q1018 RETS TEMPO 30012KT -TSRA RMK RWY09 02005KT =

yani yukarıdaki satırlar
LDJK 171150Z VRB05KT 9999 BKN035 29/08 Q1018 TEMPO FM 1300 28015G25KT -TSRA =
GPDJ 171150Z VRB06KT 9999 TS FEW030CB BKN033 24/09 Q1020 =
KKPS 171150Z 21006KT 160V250 9999 FEW035 SCT100 BKN200 32/10 Q1015 NOSIG =
SGAD 171150Z 19003KT 160V230 9999 FEW035 BKN100 29/14 Q1015 NOSIG =
FAFD 171150Z VRB02G12KT 9999 FEW030CB BKN035 25/11 Q1018 RETS TEMPO 30012KT -TSRA =

şeklinde olacak.yardım ederseniz çok sevinirim.şimdiden teşekküreler.
Kullanıcı avatarı
aybekcan
 
Kayıt: 04 Tem 2016 00:31
Meslek: mühendis
Yaş: 45
İleti: 3
 
Cinsiyet: Bay
Bulunduğunuz İl / Semt: istanbul

Cevap: makroyla bir metinin belirli bir parçasını nasıl seçe

İleti#2)  hemso41 » 17 May 2018 17:05

Verilerinin A1 hücresinden aşağı doğru olduğu düşünürsek B1 hücresine aşağıdaki formülü yazmanız yeterli olacaktır.
=DEĞİŞTİR(A1;MBUL("RMK";A1;1);MBUL("=";A1;1);"") & "="
Kullanıcı avatarı
hemso41
Siteye Alışmış
 
Kayıt: 22 Eyl 2015 10:04
Meslek: BİLGİ İŞLEM
Yaş: 38
İleti: 329
 
Cinsiyet: Bay
Bulunduğunuz İl / Semt: izmir/karşıyaka

Cevap: makroyla bir metinin belirli bir parçasını nasıl seçe

İleti#3)  aybekcan » 19 May 2018 02:05

Teşekkür ederim hocam.
Kullanıcı avatarı
aybekcan
 
Kayıt: 04 Tem 2016 00:31
Meslek: mühendis
Yaş: 45
İleti: 3
 
Cinsiyet: Bay
Bulunduğunuz İl / Semt: istanbul


Forum Genel Makro Soruları

Online Kullanıcılar

Bu forumu görüntüleyenler: AhrefsBot ve 1 misafir

Bumerang - Yazarkafe